createdAt,value
2017-12-21T00:00:31.641Z,17.33
2017-12-21T00:02:59.171Z,16.67
2017-12-21T00:05:26.692Z,16.40
2017-12-21T00:07:54.313Z,18.12
2017-12-21T00:10:21.816Z,16.60
2017-12-21T00:12:49.338Z,17.40
2017-12-21T00:15:16.925Z,17.23
2017-12-21T00:17:44.418Z,17.27
2017-12-21T00:20:12.787Z,16.97
2017-12-21T00:22:41.091Z,16.53
2017-12-21T00:25:08.590Z,16.73
2017-12-21T00:27:36.104Z,16.80
2017-12-21T00:30:03.607Z,16.37
2017-12-21T00:32:31.229Z,16.97
2017-12-21T00:34:58.763Z,15.77
2017-12-21T00:37:27.044Z,16.47
2017-12-21T00:39:55.353Z,15.40
2017-12-21T00:42:22.898Z,15.67
2017-12-21T00:44:50.408Z,15.60
2017-12-21T00:47:19.426Z,15.57
2017-12-21T00:49:47.729Z,15.70
2017-12-21T00:52:15.222Z,15.47
2017-12-21T00:54:42.846Z,15.87
2017-12-21T00:57:10.376Z,15.60
2017-12-21T00:59:38.636Z,15.53
2017-12-21T01:02:06.894Z,16.23
2017-12-21T01:04:34.511Z,17.15
2017-12-21T01:07:02.042Z,16.52
2017-12-21T01:09:30.310Z,15.97
2017-12-21T01:11:57.828Z,15.37
2017-12-21T01:14:25.336Z,15.87
2017-12-21T01:16:53.641Z,15.75
2017-12-21T01:19:21.150Z,16.23
2017-12-21T01:21:48.640Z,16.17
2017-12-21T01:24:16.904Z,16.43
2017-12-21T01:26:44.422Z,16.00
2017-12-21T01:29:12.019Z,16.87
2017-12-21T01:31:39.606Z,15.93
2017-12-21T01:34:07.143Z,16.52
2017-12-21T01:36:35.443Z,16.27
2017-12-21T01:39:02.976Z,16.50
2017-12-21T01:41:31.242Z,16.70
2017-12-21T01:43:59.519Z,16.47
2017-12-21T01:46:28.532Z,16.45
2017-12-21T01:48:56.869Z,16.25
2017-12-21T01:51:24.392Z,15.98
2017-12-21T01:53:51.903Z,15.80
2017-12-21T01:56:19.413Z,16.20
2017-12-21T01:58:46.900Z,16.70
2017-12-21T02:01:14.443Z,16.20
2017-12-21T02:03:41.964Z,16.45
2017-12-21T02:06:10.262Z,16.53
2017-12-21T02:08:37.766Z,17.10
2017-12-21T02:11:05.273Z,16.10
2017-12-21T02:13:32.798Z,17.97
2017-12-21T02:16:00.296Z,17.40
2017-12-21T02:18:27.799Z,17.53
2017-12-21T02:20:55.410Z,17.97
2017-12-21T02:23:22.922Z,17.42
2017-12-21T02:25:50.458Z,17.80
2017-12-21T02:28:17.962Z,17.00
2017-12-21T02:30:46.268Z,17.23
2017-12-21T02:33:13.787Z,17.70
2017-12-21T02:35:42.093Z,17.23
2017-12-21T02:38:09.617Z,17.77
2017-12-21T02:40:37.210Z,18.00
2017-12-21T02:43:04.717Z,17.40
2017-12-21T02:45:32.234Z,16.07
2017-12-21T02:47:59.798Z,16.13
2017-12-21T02:50:27.318Z,16.10
2017-12-21T02:52:54.835Z,15.80
2017-12-21T02:55:22.385Z,16.57
2017-12-21T02:57:49.890Z,16.07
2017-12-21T03:00:17.492Z,14.60
2017-12-21T03:02:45.016Z,14.70
2017-12-21T03:05:12.517Z,14.83
2017-12-21T03:07:40.032Z,14.80
2017-12-21T03:10:07.530Z,14.10
2017-12-21T03:12:35.040Z,14.27
2017-12-21T03:15:02.534Z,14.40
2017-12-21T03:17:30.106Z,13.87
2017-12-21T03:19:57.614Z,14.13
2017-12-21T03:22:25.106Z,13.80
2017-12-21T03:24:53.386Z,13.30
2017-12-21T03:27:21.644Z,13.63
2017-12-21T03:29:49.931Z,14.37
2017-12-21T03:32:18.197Z,14.18
2017-12-21T03:34:45.780Z,13.83
2017-12-21T03:37:13.344Z,14.80
2017-12-21T03:39:40.887Z,14.20
2017-12-21T03:42:09.159Z,14.80
2017-12-21T03:44:37.411Z,13.77
2017-12-21T03:47:06.434Z,14.23
2017-12-21T03:49:33.955Z,13.70
2017-12-21T03:52:01.481Z,13.10
2017-12-21T03:54:29.027Z,14.67
2017-12-21T03:56:57.525Z,14.43
2017-12-21T03:59:25.043Z,14.00
2017-12-21T04:01:53.299Z,14.30
2017-12-21T04:04:21.577Z,14.07
2017-12-21T04:06:49.064Z,14.60
2017-12-21T04:09:17.439Z,14.40
2017-12-21T04:11:45.728Z,14.77
2017-12-21T04:14:13.226Z,14.27
2017-12-21T04:16:40.859Z,13.43
2017-12-21T04:19:08.366Z,13.00
2017-12-21T04:21:37.370Z,12.93
2017-12-21T04:24:04.972Z,12.03
2017-12-21T04:26:32.487Z,13.40
2017-12-21T04:29:00.765Z,13.00
2017-12-21T04:31:28.302Z,12.77
2017-12-21T04:33:56.943Z,13.70
2017-12-21T04:36:24.516Z,12.93
2017-12-21T04:38:52.007Z,12.20
2017-12-21T04:41:19.620Z,12.07
2017-12-21T04:43:47.188Z,11.33
2017-12-21T04:46:14.753Z,11.63
2017-12-21T04:48:42.309Z,11.80
2017-12-21T04:51:09.800Z,10.87
2017-12-21T04:53:38.045Z,11.40
2017-12-21T04:56:05.583Z,10.47
2017-12-21T04:58:33.853Z,11.03
2017-12-21T05:01:02.121Z,11.57
2017-12-21T05:03:30.409Z,11.67
2017-12-21T05:05:58.696Z,11.17
2017-12-21T05:08:26.965Z,12.00
2017-12-21T05:10:55.239Z,11.33
2017-12-21T05:13:23.517Z,11.02
2017-12-21T05:15:51.902Z,10.47
2017-12-21T05:18:20.197Z,10.90
2017-12-21T05:20:47.694Z,11.43
2017-12-21T05:23:15.980Z,11.23
2017-12-21T05:25:44.248Z,12.20
2017-12-21T05:28:11.753Z,9.90
2017-12-21T05:30:39.257Z,11.07
2017-12-21T05:33:06.750Z,10.43
2017-12-21T05:35:35.027Z,10.43
2017-12-21T05:38:03.433Z,9.80
2017-12-21T05:40:30.930Z,10.40
2017-12-21T05:42:58.450Z,10.33
2017-12-21T05:45:25.989Z,9.47
2017-12-21T05:47:54.255Z,9.33
2017-12-21T05:50:22.524Z,8.83
2017-12-21T05:52:50.121Z,9.30
2017-12-21T05:55:17.651Z,9.97
2017-12-21T05:57:45.958Z,9.10
2017-12-21T06:00:13.442Z,9.17
2017-12-21T06:02:40.964Z,11.07
2017-12-21T06:05:08.470Z,10.93
2017-12-21T06:07:35.984Z,8.47
2017-12-21T06:10:03.489Z,8.00
2017-12-21T06:12:30.998Z,8.97
2017-12-21T06:14:58.517Z,8.77
2017-12-21T06:17:26.764Z,8.73
2017-12-21T06:19:54.288Z,9.37
2017-12-21T06:22:21.787Z,8.80
2017-12-21T06:24:49.307Z,8.73
2017-12-21T06:27:16.856Z,8.70
2017-12-21T06:29:44.361Z,8.80
2017-12-21T06:32:11.868Z,8.70
2017-12-21T06:34:40.132Z,8.23
2017-12-21T06:37:07.640Z,8.23
2017-12-21T06:39:35.217Z,9.27
2017-12-21T06:42:02.739Z,8.83
2017-12-21T06:44:30.224Z,8.87
2017-12-21T06:46:57.785Z,8.70
2017-12-21T06:49:25.312Z,8.90
2017-12-21T06:51:52.835Z,8.57
2017-12-21T06:54:20.340Z,8.57
2017-12-21T06:56:47.917Z,8.17
2017-12-21T06:59:15.594Z,8.57
2017-12-21T07:01:43.960Z,8.83
2017-12-21T07:04:11.468Z,8.03
2017-12-21T07:06:39.822Z,8.70
2017-12-21T07:09:07.384Z,8.83
2017-12-21T07:11:34.983Z,8.83
2017-12-21T07:14:02.675Z,8.50
2017-12-21T07:16:30.187Z,8.53
2017-12-21T07:18:58.473Z,8.17
2017-12-21T07:21:26.738Z,8.07
2017-12-21T07:23:55.086Z,8.47
2017-12-21T07:26:22.579Z,8.27
2017-12-21T07:28:51.613Z,8.90
2017-12-21T07:31:19.120Z,8.13
2017-12-21T07:33:46.724Z,8.43
2017-12-21T07:36:14.220Z,8.07
2017-12-21T07:38:41.716Z,8.40
2017-12-21T07:41:10.066Z,9.73
2017-12-21T07:43:37.570Z,9.57
2017-12-21T07:46:05.057Z,9.73
2017-12-21T07:48:32.546Z,8.00
2017-12-21T07:51:00.125Z,8.90
2017-12-21T07:53:28.381Z,13.53
2017-12-21T07:55:55.878Z,9.87
2017-12-21T07:58:23.576Z,9.93
2017-12-21T08:00:51.093Z,8.53
2017-12-21T08:03:18.657Z,9.57
2017-12-21T08:05:46.174Z,8.03
2017-12-21T08:08:13.780Z,8.87
2017-12-21T08:10:41.437Z,8.67
2017-12-21T08:13:09.037Z,8.97
2017-12-21T08:15:36.508Z,8.93
2017-12-21T08:18:04.772Z,8.43
2017-12-21T08:20:32.337Z,8.30
2017-12-21T08:22:59.923Z,7.77
2017-12-21T08:25:28.239Z,8.03
2017-12-21T08:27:55.926Z,7.50
2017-12-21T08:30:23.649Z,7.80
2017-12-21T08:32:51.138Z,7.80
2017-12-21T08:35:18.631Z,7.13
2017-12-21T08:37:46.129Z,6.97
2017-12-21T08:40:13.657Z,7.80
2017-12-21T08:42:41.287Z,6.80
2017-12-21T08:45:08.875Z,7.60
2017-12-21T08:47:37.228Z,7.40
2017-12-21T08:50:04.766Z,6.70
2017-12-21T08:52:32.260Z,7.23
2017-12-21T08:54:59.794Z,6.27
2017-12-21T08:57:27.532Z,6.20
2017-12-21T08:59:55.028Z,6.33
2017-12-21T09:02:22.538Z,6.70
2017-12-21T09:04:50.799Z,5.80
2017-12-21T09:07:19.076Z,6.80
2017-12-21T09:09:47.331Z,6.70
2017-12-21T09:12:14.854Z,6.33
2017-12-21T09:14:42.376Z,6.40
2017-12-21T09:17:10.642Z,6.83
2017-12-21T09:19:38.912Z,6.03
2017-12-21T09:22:06.405Z,6.17
2017-12-21T09:24:33.892Z,6.67
2017-12-21T09:27:01.421Z,6.13
2017-12-21T09:29:28.907Z,6.50
2017-12-21T09:31:56.426Z,5.83
2017-12-21T09:34:23.910Z,6.50
2017-12-21T09:36:51.435Z,6.50
2017-12-21T09:39:18.935Z,6.03
2017-12-21T09:41:46.465Z,6.27
2017-12-21T09:44:14.021Z,5.73
2017-12-21T09:46:41.521Z,5.60
2017-12-21T09:49:09.004Z,5.77
2017-12-21T09:51:36.594Z,5.97
2017-12-21T09:54:04.855Z,6.13
2017-12-21T09:56:33.101Z,6.03
2017-12-21T09:59:00.614Z,5.83
2017-12-21T10:01:28.199Z,6.07
2017-12-21T10:03:55.726Z,6.03
2017-12-21T10:06:23.255Z,5.83
2017-12-21T10:08:50.766Z,5.80
2017-12-21T10:11:18.260Z,6.80
2017-12-21T10:13:45.782Z,7.50
2017-12-21T10:16:13.296Z,7.03
2017-12-21T10:18:40.960Z,6.30
2017-12-21T10:21:08.678Z,7.30
2017-12-21T10:23:36.204Z,6.43
2017-12-21T10:26:03.704Z,6.90
2017-12-21T10:28:32.045Z,7.20
2017-12-21T10:31:00.298Z,7.50
2017-12-21T10:33:28.587Z,7.03
2017-12-21T10:35:56.864Z,7.47
2017-12-21T10:38:25.124Z,6.70
2017-12-21T10:40:53.381Z,6.40
2017-12-21T10:43:20.876Z,6.53
2017-12-21T10:45:49.144Z,6.60
2017-12-21T10:48:17.433Z,6.30
2017-12-21T10:50:44.918Z,5.90
2017-12-21T10:53:12.466Z,5.90
2017-12-21T10:55:39.953Z,6.40
2017-12-21T10:58:07.532Z,6.63
2017-12-21T11:00:35.046Z,6.53
2017-12-21T11:03:02.568Z,6.73
2017-12-21T11:05:30.831Z,6.93
2017-12-21T11:07:58.421Z,6.83
2017-12-21T11:10:25.988Z,6.70
2017-12-21T11:12:53.476Z,7.00
2017-12-21T11:15:21.019Z,6.63
2017-12-21T11:17:48.635Z,6.57
2017-12-21T11:20:16.925Z,7.00
2017-12-21T11:22:45.210Z,6.30
2017-12-21T11:25:12.724Z,6.00
2017-12-21T11:27:40.217Z,6.07
2017-12-21T11:30:08.497Z,5.47
2017-12-21T11:32:36.753Z,5.70
2017-12-21T11:35:04.246Z,5.23
2017-12-21T11:37:31.757Z,5.33
2017-12-21T11:39:59.337Z,4.90
2017-12-21T11:42:27.649Z,5.30
2017-12-21T11:44:55.209Z,5.50
2017-12-21T11:47:22.716Z,5.40
2017-12-21T11:49:50.219Z,5.67
2017-12-21T11:52:17.727Z,5.47
2017-12-21T11:54:45.233Z,4.90
2017-12-21T11:57:12.728Z,5.60
2017-12-21T11:59:40.228Z,5.47
2017-12-21T12:02:08.548Z,5.40
2017-12-21T12:04:36.076Z,4.67
2017-12-21T12:07:03.703Z,5.20
2017-12-21T12:09:31.296Z,5.37
2017-12-21T12:11:59.564Z,7.13
2017-12-21T12:14:27.817Z,5.10
2017-12-21T12:16:56.124Z,5.00
2017-12-21T12:19:24.404Z,4.70
2017-12-21T12:21:51.916Z,4.70
2017-12-21T12:24:19.412Z,4.50
2017-12-21T12:26:47.730Z,4.63
2017-12-21T12:29:15.220Z,4.87
2017-12-21T12:31:42.737Z,5.40
2017-12-21T12:34:10.271Z,5.10
2017-12-21T12:36:38.580Z,7.30
2017-12-21T12:39:06.099Z,5.90
2017-12-21T12:41:34.374Z,5.17
2017-12-21T12:44:02.621Z,5.60
2017-12-21T12:46:30.114Z,5.90
2017-12-21T12:48:58.411Z,5.77
2017-12-21T12:51:26.282Z,5.90
2017-12-21T12:53:53.793Z,6.30
2017-12-21T12:56:21.371Z,6.07
2017-12-21T12:58:49.625Z,5.93
2017-12-21T13:01:17.129Z,5.83
2017-12-21T13:03:44.629Z,5.83
2017-12-21T13:06:12.120Z,6.30
2017-12-21T13:08:40.413Z,6.10
2017-12-21T13:11:07.909Z,6.13
2017-12-21T13:13:35.439Z,6.50
2017-12-21T13:16:03.088Z,6.33
2017-12-21T13:18:30.576Z,5.97
2017-12-21T13:20:58.064Z,6.73
2017-12-21T13:23:25.749Z,6.60
2017-12-21T13:25:54.002Z,6.50
2017-12-21T13:28:21.504Z,6.27
2017-12-21T13:30:48.997Z,6.90
2017-12-21T13:33:16.576Z,6.90
2017-12-21T13:35:44.085Z,6.57
2017-12-21T13:38:11.574Z,6.87
2017-12-21T13:40:39.145Z,7.13
2017-12-21T13:43:06.659Z,7.47
2017-12-21T13:45:34.210Z,6.90
2017-12-21T13:48:02.509Z,7.60
2017-12-21T13:50:30.346Z,7.17
2017-12-21T13:52:58.653Z,7.37
2017-12-21T13:55:26.162Z,7.27
2017-12-21T13:57:53.839Z,7.63
2017-12-21T14:00:22.093Z,8.03
2017-12-21T14:02:49.705Z,8.53
2017-12-21T14:05:17.212Z,8.50
2017-12-21T14:07:45.543Z,8.57
2017-12-21T14:10:13.040Z,8.53
2017-12-21T14:12:40.545Z,8.47
2017-12-21T14:15:08.113Z,8.17
2017-12-21T14:17:35.673Z,7.53
2017-12-21T14:20:03.243Z,8.07
2017-12-21T14:22:30.727Z,8.00
2017-12-21T14:24:58.345Z,8.20
2017-12-21T14:27:25.905Z,8.70
2017-12-21T14:29:53.467Z,8.27
2017-12-21T14:32:21.064Z,8.50
2017-12-21T14:34:48.586Z,8.30
2017-12-21T14:37:16.089Z,8.20
2017-12-21T14:39:43.610Z,9.40
2017-12-21T14:42:11.136Z,9.43
2017-12-21T14:44:38.663Z,8.40
2017-12-21T14:47:06.183Z,8.17
2017-12-21T14:49:33.746Z,8.57
2017-12-21T14:52:01.257Z,9.07
2017-12-21T14:54:28.781Z,8.63
2017-12-21T14:56:56.304Z,8.37
2017-12-21T14:59:24.589Z,9.17
2017-12-21T15:01:52.211Z,9.03
2017-12-21T15:04:19.804Z,8.93
2017-12-21T15:06:48.092Z,9.53
2017-12-21T15:09:15.691Z,9.33
2017-12-21T15:11:43.205Z,9.37
2017-12-21T15:14:10.696Z,9.73
2017-12-21T15:16:38.220Z,9.33
2017-12-21T15:19:05.838Z,9.63
2017-12-21T15:21:33.343Z,9.80
2017-12-21T15:24:00.840Z,11.80
2017-12-21T15:26:28.356Z,10.40
2017-12-21T15:28:55.866Z,9.40
2017-12-21T15:31:23.392Z,10.03
2017-12-21T15:33:50.950Z,9.87
2017-12-21T15:36:18.500Z,9.40
2017-12-21T15:38:46.036Z,8.97
2017-12-21T15:41:13.521Z,9.47
2017-12-21T15:43:41.025Z,10.70
2017-12-21T15:46:08.513Z,8.97
2017-12-21T15:48:36.789Z,8.90
2017-12-21T15:51:05.058Z,8.87
2017-12-21T15:53:33.361Z,8.90
2017-12-21T15:56:00.873Z,9.70
2017-12-21T15:58:28.493Z,9.30
2017-12-21T16:00:55.998Z,10.07
2017-12-21T16:03:23.496Z,9.50
2017-12-21T16:05:51.107Z,9.33
2017-12-21T16:08:18.615Z,9.83
2017-12-21T16:10:46.113Z,10.40
2017-12-21T16:13:13.608Z,10.50
2017-12-21T16:15:41.880Z,10.27
2017-12-21T16:18:10.156Z,10.53
2017-12-21T16:20:37.649Z,9.27
2017-12-21T16:23:05.161Z,10.60
2017-12-21T16:25:32.648Z,10.30
2017-12-21T16:28:00.194Z,10.90
2017-12-21T16:30:28.451Z,10.43
2017-12-21T16:32:55.966Z,10.50
2017-12-21T16:35:23.510Z,10.73
2017-12-21T16:37:51.034Z,11.40
2017-12-21T16:40:18.548Z,10.97
2017-12-21T16:42:46.141Z,10.77
2017-12-21T16:45:13.750Z,10.37
2017-12-21T16:47:41.236Z,10.73
2017-12-21T16:50:08.767Z,10.70
2017-12-21T16:52:36.432Z,10.63
2017-12-21T16:55:04.045Z,11.00
2017-12-21T16:57:31.540Z,10.97
2017-12-21T16:59:59.801Z,11.63
2017-12-21T17:02:28.073Z,12.20
2017-12-21T17:04:55.654Z,10.67
2017-12-21T17:07:23.233Z,11.10
2017-12-21T17:09:51.639Z,11.40
2017-12-21T17:12:19.109Z,10.90
2017-12-21T17:14:46.609Z,11.97
2017-12-21T17:17:14.882Z,11.03
2017-12-21T17:19:43.157Z,11.10
2017-12-21T17:22:11.451Z,11.60
2017-12-21T17:24:39.011Z,10.93
2017-12-21T17:27:06.496Z,11.23
2017-12-21T17:29:34.004Z,10.97
2017-12-21T17:32:02.270Z,11.23
2017-12-21T17:34:29.839Z,12.43
2017-12-21T17:36:58.133Z,12.27
2017-12-21T17:39:25.628Z,11.77
2017-12-21T17:41:53.150Z,12.10
2017-12-21T17:44:20.733Z,12.40
2017-12-21T17:46:48.231Z,11.53
2017-12-21T17:49:15.825Z,12.43
2017-12-21T17:51:43.389Z,11.43
2017-12-21T17:54:10.882Z,11.83
2017-12-21T17:56:38.377Z,12.20
2017-12-21T17:59:05.960Z,12.57
2017-12-21T18:01:33.522Z,12.07
2017-12-21T18:04:01.037Z,11.83
2017-12-21T18:06:28.531Z,11.37
2017-12-21T18:08:56.787Z,12.00
2017-12-21T18:11:25.425Z,12.50
2017-12-21T18:13:52.917Z,12.97
2017-12-21T18:16:20.509Z,13.00
2017-12-21T18:18:48.766Z,13.00
2017-12-21T18:21:16.331Z,12.70
2017-12-21T18:23:43.913Z,15.80
2017-12-21T18:26:11.429Z,12.60
2017-12-21T18:28:38.948Z,12.83
2017-12-21T18:31:06.483Z,12.43
2017-12-21T18:33:34.760Z,12.60
2017-12-21T18:36:02.320Z,12.43
2017-12-21T18:38:29.863Z,12.87
2017-12-21T18:40:58.143Z,11.47
2017-12-21T18:43:26.473Z,11.83
2017-12-21T18:45:53.991Z,12.40
2017-12-21T18:48:21.499Z,12.17
2017-12-21T18:50:49.027Z,12.60
2017-12-21T18:53:16.513Z,12.60
2017-12-21T18:55:44.043Z,12.30
2017-12-21T18:58:12.324Z,11.50
2017-12-21T19:00:39.870Z,10.67
2017-12-21T19:03:07.374Z,11.80
2017-12-21T19:05:34.906Z,11.23
2017-12-21T19:08:02.457Z,12.37
2017-12-21T19:10:30.581Z,11.77
2017-12-21T19:12:58.076Z,11.13
2017-12-21T19:15:25.584Z,11.60
2017-12-21T19:17:53.093Z,12.17
2017-12-21T19:20:20.595Z,14.20
2017-12-21T19:22:49.234Z,11.27
2017-12-21T19:25:16.728Z,10.97
2017-12-21T19:27:44.260Z,11.63
2017-12-21T19:30:11.767Z,10.63
2017-12-21T19:32:39.273Z,11.10
2017-12-21T19:35:06.778Z,11.47
2017-12-21T19:37:34.286Z,11.47
2017-12-21T19:40:01.807Z,11.83
2017-12-21T19:42:29.400Z,10.50
2017-12-21T19:44:57.745Z,11.57
2017-12-21T19:47:25.247Z,11.27
2017-12-21T19:49:52.808Z,11.00
2017-12-21T19:52:20.365Z,11.90
2017-12-21T19:54:47.941Z,11.43
2017-12-21T19:57:15.468Z,11.60
2017-12-21T19:59:43.757Z,11.80
2017-12-21T20:02:11.255Z,12.77
2017-12-21T20:04:38.796Z,11.67
2017-12-21T20:07:06.367Z,12.10
2017-12-21T20:09:33.986Z,12.83
2017-12-21T20:12:02.251Z,12.37
2017-12-21T20:14:29.846Z,11.90
2017-12-21T20:16:57.380Z,12.40
2017-12-21T20:19:24.899Z,11.53
2017-12-21T20:21:52.454Z,10.93
2017-12-21T20:24:19.982Z,11.20
2017-12-21T20:26:47.538Z,10.70
2017-12-21T20:29:15.037Z,11.07
2017-12-21T20:31:42.559Z,11.50
2017-12-21T20:34:10.054Z,11.60
2017-12-21T20:36:37.657Z,11.83
2017-12-21T20:39:05.942Z,12.10
2017-12-21T20:41:33.470Z,12.03
2017-12-21T20:44:00.952Z,12.10
2017-12-21T20:46:28.466Z,11.83
2017-12-21T20:48:55.987Z,10.83
2017-12-21T20:51:23.485Z,11.47
2017-12-21T20:53:50.986Z,10.90
2017-12-21T20:56:18.493Z,11.37
2017-12-21T20:58:46.014Z,10.87
2017-12-21T21:01:13.584Z,11.00
2017-12-21T21:03:41.162Z,10.50
2017-12-21T21:06:08.659Z,11.23
2017-12-21T21:08:36.935Z,11.33
2017-12-21T21:11:04.436Z,10.63
2017-12-21T21:13:32.935Z,11.37
2017-12-21T21:16:00.496Z,10.97
2017-12-21T21:18:28.953Z,10.30
2017-12-21T21:20:56.474Z,10.13
2017-12-21T21:23:24.017Z,10.53
2017-12-21T21:25:51.523Z,10.37
2017-12-21T21:28:19.013Z,10.33
2017-12-21T21:30:46.522Z,10.30
2017-12-21T21:33:14.795Z,10.17
2017-12-21T21:35:43.078Z,9.90
2017-12-21T21:38:11.358Z,10.97
2017-12-21T21:40:39.618Z,10.77
2017-12-21T21:43:07.895Z,9.90
2017-12-21T21:45:35.406Z,9.87
2017-12-21T21:48:02.908Z,10.13
2017-12-21T21:50:30.393Z,10.93
2017-12-21T21:52:57.894Z,11.23
2017-12-21T21:55:25.384Z,11.63
2017-12-21T21:57:53.664Z,12.20
2017-12-21T22:00:21.936Z,11.93
2017-12-21T22:02:50.276Z,12.67
2017-12-21T22:05:17.783Z,12.27
2017-12-21T22:07:45.308Z,13.33
2017-12-21T22:10:12.901Z,13.27
2017-12-21T22:12:41.159Z,14.53
2017-12-21T22:15:08.736Z,14.67
2017-12-21T22:17:36.996Z,13.57
2017-12-21T22:20:04.505Z,13.23
2017-12-21T22:22:32.046Z,13.30
2017-12-21T22:24:59.578Z,13.33
2017-12-21T22:27:27.955Z,12.40
2017-12-21T22:29:55.443Z,12.43
2017-12-21T22:32:22.963Z,13.10
2017-12-21T22:34:50.469Z,13.87
2017-12-21T22:37:17.992Z,13.23
2017-12-21T22:39:45.571Z,13.90
2017-12-21T22:42:13.145Z,13.83
2017-12-21T22:44:40.658Z,14.83
2017-12-21T22:47:08.252Z,15.00
2017-12-21T22:49:35.760Z,14.47
2017-12-21T22:52:03.269Z,14.83
2017-12-21T22:54:30.765Z,13.73
2017-12-21T22:56:58.268Z,14.33
2017-12-21T22:59:26.558Z,14.67
2017-12-21T23:01:54.829Z,15.67
2017-12-21T23:04:23.114Z,15.90
2017-12-21T23:06:50.695Z,16.57
2017-12-21T23:09:18.189Z,17.03
2017-12-21T23:11:45.729Z,16.67
2017-12-21T23:14:13.253Z,18.03
2017-12-21T23:16:40.770Z,16.63
2017-12-21T23:19:09.036Z,17.97
2017-12-21T23:21:38.068Z,17.53
2017-12-21T23:24:06.328Z,17.90
2017-12-21T23:26:33.834Z,17.80
2017-12-21T23:29:01.342Z,17.50
2017-12-21T23:31:29.605Z,18.63
2017-12-21T23:33:57.200Z,17.57
2017-12-21T23:36:25.464Z,18.93
2017-12-21T23:38:53.726Z,17.57
2017-12-21T23:41:21.241Z,17.57
2017-12-21T23:43:48.740Z,18.03
2017-12-21T23:46:17.070Z,18.43
2017-12-21T23:48:44.716Z,18.07
2017-12-21T23:51:12.789Z,17.80
2017-12-21T23:53:41.067Z,18.07
2017-12-21T23:56:08.561Z,18.40
2017-12-21T23:58:36.839Z,17.27
